Time;durP1;ratioP1;P1;durP2;ratioP2;P2;SDS_P1;SDS_P2;PMS_P1;PMS_P2;Temp;Humidity;BMP_temperature;BMP_pressure;BME280_temperature;BME280_humidity;BME280_pressure;Samples;Min_cycle;Max_cycle;Signal;HPM_P1;HPM_P2
2023/12/02 00:00:56;;;;;;;30.43;21.27;;;;;;;0.21;100.00;96678.41;4993814;28;20580;-72
2023/12/02 00:03:22;;;;;;;27.10;19.27;;;;;;;0.17;100.00;96679.75;4993876;28;20678;-72
2023/12/02 00:05:50;;;;;;;30.20;19.57;;;;;;;0.13;100.00;96687.19;4993868;28;20211;-72
2023/12/02 00:08:16;;;;;;;28.33;19.93;;;;;;;0.13;100.00;96667.28;4994061;28;20229;-72
2023/12/02 00:10:43;;;;;;;28.30;19.80;;;;;;;0.21;100.00;96669.78;4993967;28;20263;-72
2023/12/02 00:13:09;;;;;;;28.40;20.13;;;;;;;0.12;100.00;96671.69;4993923;28;20204;-72
2023/12/02 00:15:35;;;;;;;28.20;20.30;;;;;;;0.09;100.00;96678.09;4993695;28;20692;-72
2023/12/02 00:18:02;;;;;;;29.77;19.70;;;;;;;0.16;100.00;96678.16;4993527;28;20726;-72
2023/12/02 00:20:28;;;;;;;30.10;19.97;;;;;;;0.14;100.00;96683.56;4993867;28;20231;-72
2023/12/02 00:22:55;;;;;;;31.40;21.07;;;;;;;0.08;100.00;96680.88;4993767;28;20211;-72
2023/12/02 00:25:21;;;;;;;31.50;21.07;;;;;;;0.06;100.00;96688.91;4993810;28;20239;-72
2023/12/02 00:27:48;;;;;;;27.77;19.03;;;;;;;0.21;100.00;96698.50;4993811;28;20199;-72
2023/12/02 00:30:14;;;;;;;29.23;19.97;;;;;;;0.14;100.00;96696.63;4993725;28;20233;-72
2023/12/02 00:32:41;;;;;;;29.10;21.17;;;;;;;0.17;100.00;96710.34;4993612;28;20203;-72
2023/12/02 00:35:08;;;;;;;29.17;21.47;;;;;;;0.17;100.00;96705.09;4994207;28;20580;-72
2023/12/02 00:37:34;;;;;;;29.57;21.10;;;;;;;0.14;100.00;96696.63;4997078;28;20721;-72
2023/12/02 00:40:01;;;;;;;31.33;21.60;;;;;;;0.11;100.00;96709.25;4997355;28;20576;-72
2023/12/02 00:42:27;;;;;;;28.57;21.13;;;;;;;0.06;100.00;96709.00;4997073;28;20298;-72
2023/12/02 00:44:53;;;;;;;28.23;20.30;;;;;;;0.12;100.00;96712.69;4997349;28;20208;-72
2023/12/02 00:47:20;;;;;;;29.33;20.83;;;;;;;0.11;100.00;96711.88;4997302;28;20207;-72
2023/12/02 00:49:46;;;;;;;28.47;20.47;;;;;;;0.24;100.00;96706.78;4997118;28;20223;-72
2023/12/02 00:52:13;;;;;;;29.57;20.93;;;;;;;0.26;100.00;96709.22;4996807;28;20973;-72
2023/12/02 00:54:40;;;;;;;27.23;20.03;;;;;;;0.21;100.00;96714.19;4996892;28;20445;-72
2023/12/02 00:57:07;;;;;;;26.43;19.87;;;;;;;0.18;100.00;96721.38;4997103;28;20527;-72
2023/12/02 00:59:33;;;;;;;27.30;19.83;;;;;;;0.22;100.00;96721.03;4996927;28;20243;-72
2023/12/02 01:01:59;;;;;;;26.47;20.17;;;;;;;0.21;100.00;96720.22;4996718;28;20204;-72
2023/12/02 01:04:26;;;;;;;27.47;19.33;;;;;;;0.13;100.00;96710.69;4997026;28;20203;-72
2023/12/02 01:06:52;;;;;;;27.87;19.57;;;;;;;0.06;100.00;96714.25;4996993;28;20218;-72
2023/12/02 01:09:19;;;;;;;29.13;20.33;;;;;;;0.11;100.00;96711.88;4996740;28;20223;-72
2023/12/02 01:11:45;;;;;;;29.53;20.67;;;;;;;0.08;100.00;96713.06;4996858;28;20213;-72
2023/12/02 01:14:11;;;;;;;26.63;19.07;;;;;;;0.06;100.00;96719.47;4996545;28;20211;-72
2023/12/02 01:16:38;;;;;;;27.60;19.63;;;;;;;-0.01;100.00;96716.78;4996595;28;20211;-72
2023/12/02 01:19:04;;;;;;;31.83;20.77;;;;;;;0.00;100.00;96704.56;4996777;28;20235;-72
2023/12/02 01:21:31;;;;;;;28.90;20.37;;;;;;;0.00;100.00;96718.41;4996689;28;20215;-72
2023/12/02 01:23:57;;;;;;;28.40;19.43;;;;;;;0.01;100.00;96727.84;4996633;28;20449;-72
2023/12/02 01:26:24;;;;;;;29.10;19.47;;;;;;;0.08;100.00;96727.91;4996538;28;20295;-72
2023/12/02 01:28:51;;;;;;;29.20;20.33;;;;;;;-0.02;100.00;96728.25;4996214;28;20219;-72
2023/12/02 01:31:17;;;;;;;26.20;19.10;;;;;;;0.08;100.00;96739.19;4996115;28;20440;-72
2023/12/02 01:33:44;;;;;;;30.67;22.13;;;;;;;0.03;100.00;96732.09;4996398;28;20207;-72
2023/12/02 01:36:12;;;;;;;30.57;21.67;;;;;;;0.02;100.00;96731.28;4995931;28;20208;-72
2023/12/02 01:38:38;;;;;;;28.30;18.97;;;;;;;0.03;100.00;96725.88;4996179;28;20226;-72
2023/12/02 01:41:05;;;;;;;30.10;21.40;;;;;;;-0.09;100.00;96732.56;4997074;28;20203;-72
2023/12/02 01:43:31;;;;;;;30.50;20.13;;;;;;;-0.01;100.00;96740.28;4996187;28;20437;-72
2023/12/02 01:45:58;;;;;;;31.50;21.73;;;;;;;-0.06;100.00;96750.50;4996920;28;20211;-72
2023/12/02 01:48:28;;;;;;;26.77;19.33;;;;;;;0.07;100.00;96744.59;4995087;28;20199;-72
2023/12/02 01:50:54;;;;;;;28.33;19.87;;;;;;;0.01;100.00;96747.94;4996043;28;20213;-72
2023/12/02 01:53:21;;;;;;;30.70;19.77;;;;;;;-0.10;100.00;96740.59;4995766;28;20219;-72
2023/12/02 01:55:47;;;;;;;27.63;18.33;;;;;;;-0.13;100.00;96736.53;4995695;28;20441;-72
2023/12/02 01:58:14;;;;;;;29.20;20.33;;;;;;;-0.15;100.00;96727.28;4995641;28;20563;-72
2023/12/02 02:00:41;;;;;;;28.97;20.73;;;;;;;-0.17;100.00;96737.09;4995796;28;20960;-72
2023/12/02 02:03:07;;;;;;;28.27;19.30;;;;;;;-0.30;100.00;96745.56;4995575;28;20445;-72
2023/12/02 02:05:34;;;;;;;27.77;20.03;;;;;;;-0.10;100.00;96758.88;4995535;28;20456;-72
2023/12/02 02:08:00;;;;;;;26.57;20.13;;;;;;;-0.14;100.00;96755.81;4995800;28;20444;-72
2023/12/02 02:10:27;;;;;;;30.73;21.03;;;;;;;-0.21;100.00;96770.59;4995682;28;20449;-72
2023/12/02 02:12:53;;;;;;;28.17;20.70;;;;;;;-0.18;100.00;96767.63;4995718;28;20441;-72
2023/12/02 02:15:19;;;;;;;30.20;21.33;;;;;;;-0.21;100.00;96765.38;4995683;28;20437;-72
2023/12/02 02:17:46;;;;;;;29.77;21.13;;;;;;;-0.17;100.00;96760.63;4995560;28;20234;-72
2023/12/02 02:20:12;;;;;;;28.63;20.43;;;;;;;-0.16;100.00;96751.78;4995452;28;20223;-72
2023/12/02 02:22:39;;;;;;;30.63;20.20;;;;;;;-0.22;100.00;96747.31;4995465;28;20207;-72
2023/12/02 02:25:06;;;;;;;30.83;20.37;;;;;;;-0.23;100.00;96756.09;4995408;28;20245;-72
2023/12/02 02:27:32;;;;;;;31.27;20.57;;;;;;;-0.29;100.00;96757.66;4995103;28;20436;-72
2023/12/02 02:29:59;;;;;;;31.53;21.53;;;;;;;-0.30;100.00;96750.00;4995303;28;20445;-72
2023/12/02 02:32:25;;;;;;;27.87;18.57;;;;;;;-0.27;100.00;96747.84;4995429;28;20214;-72
2023/12/02 02:34:52;;;;;;;28.97;18.40;;;;;;;-0.35;100.00;96749.75;4995303;28;20451;-72
2023/12/02 02:37:19;;;;;;;30.00;19.10;;;;;;;-0.32;100.00;96754.59;4994881;28;20472;-72
2023/12/02 02:39:45;;;;;;;30.73;20.57;;;;;;;-0.41;100.00;96740.84;4995114;28;20604;-72
2023/12/02 02:42:11;;;;;;;26.70;19.67;;;;;;;-0.37;100.00;96749.09;4995074;28;20207;-72
2023/12/02 02:44:38;;;;;;;30.20;20.07;;;;;;;-0.40;100.00;96758.13;4995107;28;20437;-72
2023/12/02 02:47:05;;;;;;;31.70;20.67;;;;;;;-0.42;100.00;96764.50;4995060;28;20437;-72
2023/12/02 02:49:32;;;;;;;29.33;21.23;;;;;;;-0.36;100.00;96769.03;4994787;28;20459;-72
2023/12/02 02:51:58;;;;;;;30.47;21.53;;;;;;;-0.37;100.00;96776.03;4994589;28;20445;-72
2023/12/02 02:54:24;;;;;;;32.87;23.03;;;;;;;-0.42;100.00;96782.78;4994966;28;20437;-72
2023/12/02 02:56:52;;;;;;;31.40;19.73;;;;;;;-0.33;100.00;96784.31;4994969;28;20437;-73
2023/12/02 02:59:18;;;;;;;29.60;19.90;;;;;;;-0.37;100.00;96770.81;4994628;28;20301;-72
2023/12/02 03:01:47;;;;;;;32.97;22.50;;;;;;;-0.46;100.00;96789.34;4994863;28;20290;-72
2023/12/02 03:04:14;;;;;;;34.73;22.60;;;;;;;-0.48;100.00;96786.97;4994525;28;20963;-73
2023/12/02 03:06:41;;;;;;;33.87;22.87;;;;;;;-0.48;100.00;96779.13;4995633;28;20572;-73
2023/12/02 03:09:11;;;;;;;32.43;21.67;;;;;;;-0.46;100.00;96779.75;4994571;28;20457;-73
2023/12/02 03:11:37;;;;;;;36.80;22.37;;;;;;;-0.31;100.00;96774.50;4994665;28;20451;-73
2023/12/02 03:14:04;;;;;;;31.63;21.57;;;;;;;-0.35;100.00;96768.03;4994356;28;20790;-72
2023/12/02 03:16:30;;;;;;;31.83;20.77;;;;;;;-0.41;100.00;96760.91;4994261;28;20933;-73
2023/12/02 03:18:56;;;;;;;31.70;22.10;;;;;;;-0.46;100.00;96765.88;4994439;28;20577;-73
2023/12/02 03:21:23;;;;;;;35.20;21.23;;;;;;;-0.44;100.00;96764.69;4994512;28;20433;-73
2023/12/02 03:23:50;;;;;;;33.57;20.80;;;;;;;-0.43;100.00;96768.13;4994449;28;20444;-72
2023/12/02 03:26:17;;;;;;;32.60;22.80;;;;;;;-0.46;100.00;96771.91;4994064;28;20439;-72
2023/12/02 03:28:43;;;;;;;35.43;23.23;;;;;;;-0.49;100.00;96779.31;4994335;28;20428;-73
2023/12/02 03:31:10;;;;;;;34.83;22.43;;;;;;;-0.42;100.00;96773.16;4995190;28;20437;-72
2023/12/02 03:33:36;;;;;;;32.33;22.23;;;;;;;-0.50;100.00;96773.25;4994068;28;20919;-73
2023/12/02 03:36:02;;;;;;;33.07;22.47;;;;;;;-0.50;100.00;96786.31;4993937;28;20809;-73
2023/12/02 03:38:29;;;;;;;34.87;23.40;;;;;;;-0.51;100.00;96779.47;4994169;28;20489;-73
2023/12/02 03:40:55;;;;;;;30.53;21.60;;;;;;;-0.42;100.00;96775.78;4994691;28;20455;-73
2023/12/02 03:43:22;;;;;;;31.40;20.20;;;;;;;-0.44;100.00;96782.16;4993966;28;20433;-73
2023/12/02 03:45:48;;;;;;;35.60;22.97;;;;;;;-0.53;100.00;96778.03;4994170;28;20437;-72
2023/12/02 03:48:14;;;;;;;33.03;22.53;;;;;;;-0.58;100.00;96791.63;4993893;28;20444;-73
2023/12/02 03:50:41;;;;;;;28.93;20.43;;;;;;;-0.47;100.00;96785.97;4993824;28;20988;-73
2023/12/02 03:53:07;;;;;;;31.20;20.20;;;;;;;-0.54;100.00;96795.47;4993753;28;20964;-73
2023/12/02 03:55:33;;;;;;;32.23;20.63;;;;;;;-0.53;100.00;96797.09;4994147;28;20448;-72
2023/12/02 03:58:00;;;;;;;28.50;20.20;;;;;;;-0.58;100.00;96794.22;4994133;28;20443;-72
2023/12/02 04:00:27;;;;;;;30.00;20.07;;;;;;;-0.63;100.00;96804.41;4993943;28;20487;-72
2023/12/02 04:02:53;;;;;;;29.63;19.90;;;;;;;-0.60;100.00;96806.66;4993737;28;20445;-72
2023/12/02 04:05:19;;;;;;;31.17;22.13;;;;;;;-0.63;100.00;96808.81;4994034;28;20440;-73
2023/12/02 04:07:46;;;;;;;30.13;21.93;;;;;;;-0.63;100.00;96801.78;4993993;28;20433;-73
2023/12/02 04:10:12;;;;;;;31.67;21.80;;;;;;;-0.50;100.00;96798.53;4994438;28;20463;-72
2023/12/02 04:12:38;;;;;;;28.97;20.10;;;;;;;-0.54;100.00;96803.31;4997895;28;20441;-73
2023/12/02 04:15:06;;;;;;;29.77;21.07;;;;;;;-0.65;100.00;96806.38;4997879;28;20443;-73
2023/12/02 04:17:32;;;;;;;30.40;20.70;;;;;;;-0.57;100.00;96811.53;4997822;28;20809;-73
2023/12/02 04:19:59;;;;;;;27.23;19.10;;;;;;;-0.62;100.00;96819.06;4997693;28;20485;-73
2023/12/02 04:22:25;;;;;;;29.43;19.77;;;;;;;-0.51;100.00;96826.47;4997713;28;20467;-73
2023/12/02 04:24:52;;;;;;;26.67;18.30;;;;;;;-0.48;100.00;96831.31;4997717;28;20440;-73
2023/12/02 04:27:18;;;;;;;23.90;17.60;;;;;;;-0.55;100.00;96840.84;4997578;28;20778;-73
2023/12/02 04:29:44;;;;;;;24.00;16.37;;;;;;;-0.47;100.00;96843.38;4997217;28;20819;-73
2023/12/02 04:32:11;;;;;;;24.20;17.77;;;;;;;-0.62;100.00;96847.75;4997209;28;20803;-73
2023/12/02 04:34:37;;;;;;;23.03;17.13;;;;;;;-0.69;100.00;96859.09;4997479;28;20578;-73
2023/12/02 04:37:04;;;;;;;23.87;17.67;;;;;;;-0.72;100.00;96862.88;4997216;28;20670;-73
2023/12/02 04:39:30;;;;;;;21.73;16.53;;;;;;;-0.61;100.00;96867.69;4997224;28;20484;-73
2023/12/02 04:41:56;;;;;;;23.20;17.43;;;;;;;-0.69;100.00;96875.56;4997199;28;20437;-73
2023/12/02 04:44:23;;;;;;;25.50;18.03;;;;;;;-0.57;100.00;96873.34;4997249;28;20429;-73
2023/12/02 04:46:49;;;;;;;23.63;16.80;;;;;;;-0.66;100.00;96885.66;4997215;28;20210;-73
2023/12/02 04:49:15;;;;;;;21.77;16.30;;;;;;;-0.71;100.00;96884.56;4997201;28;20470;-73
2023/12/02 04:51:42;;;;;;;22.80;17.13;;;;;;;-0.74;100.00;96880.53;4997013;28;20212;-73
2023/12/02 04:54:09;;;;;;;22.73;16.37;;;;;;;-0.79;100.00;96890.69;4997173;28;20781;-73
2023/12/02 04:56:35;;;;;;;22.10;16.60;;;;;;;-0.71;100.00;96887.19;4996926;28;20944;-73
2023/12/02 04:59:02;;;;;;;27.07;18.03;;;;;;;-0.81;100.00;96892.63;4996995;28;20563;-73
2023/12/02 05:01:28;;;;;;;25.93;17.83;;;;;;;-0.73;100.00;96899.56;4997106;28;20796;-73
2023/12/02 05:03:55;;;;;;;21.23;16.87;;;;;;;-0.70;100.00;96905.28;4997049;28;20437;-73
2023/12/02 05:06:21;;;;;;;23.43;17.37;;;;;;;-0.70;100.00;96905.28;4996993;28;20443;-73
2023/12/02 05:08:47;;;;;;;24.70;17.80;;;;;;;-0.67;100.00;96904.09;4996692;28;20437;-73
2023/12/02 05:11:18;;;;;;;19.10;15.23;;;;;;;-0.70;100.00;96904.44;4996707;28;20773;-73
2023/12/02 05:13:46;;;;;;;23.70;17.27;;;;;;;-0.69;100.00;96899.06;4996720;28;20476;-73
2023/12/02 05:16:13;;;;;;;20.80;15.73;;;;;;;-0.69;100.00;96909.50;4996560;28;20449;-73
2023/12/02 05:18:43;;;;;;;21.60;15.37;;;;;;;-0.64;100.00;96906.34;4996079;28;20441;-73
2023/12/02 05:21:10;;;;;;;21.77;15.40;;;;;;;-0.76;100.00;96903.34;4996207;28;20459;-73
2023/12/02 05:23:37;;;;;;;26.43;17.13;;;;;;;-0.81;100.00;96903.06;4995793;28;20440;-73
2023/12/02 05:26:03;;;;;;;20.07;15.73;;;;;;;-0.76;100.00;96905.97;4996602;28;20778;-73
2023/12/02 05:28:30;;;;;;;20.93;15.00;;;;;;;-0.70;100.00;96904.44;4996135;28;20959;-73
2023/12/02 05:30:56;;;;;;;20.77;15.23;;;;;;;-0.72;100.00;96907.22;4996300;28;20285;-73
2023/12/02 05:33:23;;;;;;;21.27;15.47;;;;;;;-0.80;100.00;96916.94;4996213;28;20433;-73
2023/12/02 05:35:50;;;;;;;21.03;16.07;;;;;;;-0.77;100.00;96914.78;4996503;28;20441;-73
2023/12/02 05:38:16;;;;;;;21.93;16.23;;;;;;;-0.81;100.00;96921.34;4996231;28;20440;-73
2023/12/02 05:40:43;;;;;;;22.23;16.90;;;;;;;-0.72;100.00;96922.09;4995806;28;21000;-73
2023/12/02 05:43:10;;;;;;;22.93;15.70;;;;;;;-0.75;100.00;96919.84;4996158;28;20439;-73
2023/12/02 05:45:36;;;;;;;19.27;14.43;;;;;;;-0.94;100.00;96934.16;4995804;28;20931;-73
2023/12/02 05:48:03;;;;;;;19.37;15.07;;;;;;;-0.84;100.00;96933.94;4995854;28;20437;-73
2023/12/02 05:50:29;;;;;;;20.13;15.13;;;;;;;-0.75;100.00;96944.13;4996706;28;20464;-73
2023/12/02 05:52:56;;;;;;;20.43;15.63;;;;;;;-0.79;100.00;96953.28;4995583;28;20453;-73
2023/12/02 05:55:22;;;;;;;20.63;15.93;;;;;;;-0.76;100.00;96949.53;4995784;28;20433;-73
2023/12/02 05:57:48;;;;;;;18.73;15.07;;;;;;;-0.80;100.00;96956.88;4995975;28;20467;-73
2023/12/02 06:00:17;;;;;;;20.50;15.47;;;;;;;-0.82;100.00;96956.25;4995894;28;20494;-73
2023/12/02 06:02:43;;;;;;;18.63;14.83;;;;;;;-0.68;100.00;96960.69;4995650;28;20480;-73
2023/12/02 06:05:10;;;;;;;20.60;14.03;;;;;;;-0.77;100.00;96966.97;4995937;28;20436;-73
2023/12/02 06:07:36;;;;;;;18.77;14.40;;;;;;;-0.76;100.00;96973.00;4995385;28;20449;-73
2023/12/02 06:10:03;;;;;;;20.90;15.10;;;;;;;-0.74;100.00;96971.84;4995492;28;20457;-73
2023/12/02 06:12:29;;;;;;;18.40;14.63;;;;;;;-0.71;100.00;96976.69;4995663;28;20436;-73
2023/12/02 06:14:56;;;;;;;21.37;16.27;;;;;;;-0.78;100.00;96972.34;4995560;28;20437;-73
2023/12/02 06:17:22;;;;;;;18.43;15.70;;;;;;;-0.74;100.00;96971.84;4995529;28;20440;-73
2023/12/02 06:19:48;;;;;;;19.50;14.40;;;;;;;-0.71;100.00;96973.28;4995267;28;20480;-73
2023/12/02 06:22:15;;;;;;;25.17;16.63;;;;;;;-0.77;100.00;96966.97;4995390;28;20449;-73
2023/12/02 06:24:41;;;;;;;22.70;16.43;;;;;;;-0.81;100.00;96975.34;4994942;28;20986;-73
2023/12/02 06:27:07;;;;;;;22.77;16.63;;;;;;;-0.68;100.00;96978.97;4995072;28;20441;-73
2023/12/02 06:29:34;;;;;;;25.27;18.13;;;;;;;-0.67;100.00;96977.97;4995127;28;20449;-73
2023/12/02 06:32:00;;;;;;;23.73;15.93;;;;;;;-0.76;100.00;96983.44;4995333;28;20452;-73
2023/12/02 06:34:28;;;;;;;23.37;17.00;;;;;;;-0.77;100.00;96990.44;4994787;28;20433;-73
2023/12/02 06:36:54;;;;;;;22.97;17.07;;;;;;;-0.80;100.00;96990.78;4994875;28;20942;-73
2023/12/02 06:39:21;;;;;;;22.27;15.67;;;;;;;-0.68;100.00;96984.19;4995008;28;20485;-73
2023/12/02 06:41:47;;;;;;;20.17;14.93;;;;;;;-0.92;100.00;96989.59;4995134;28;20495;-73
2023/12/02 06:44:14;;;;;;;21.33;16.13;;;;;;;-0.93;100.00;97003.63;4995092;28;20444;-73
2023/12/02 06:46:40;;;;;;;19.57;14.27;;;;;;;-1.02;100.00;96996.00;4995444;28;20812;-73
2023/12/02 06:49:07;;;;;;;20.23;16.10;;;;;;;-1.05;100.00;97006.78;4994854;28;20457;-73
2023/12/02 06:51:34;;;;;;;22.73;15.80;;;;;;;-1.08;100.00;97020.97;4994831;28;20547;-73
2023/12/02 06:54:00;;;;;;;19.83;15.53;;;;;;;-1.14;100.00;97019.06;4994903;28;20465;-73
2023/12/02 06:56:27;;;;;;;20.67;14.90;;;;;;;-1.16;100.00;97018.44;4994735;28;20443;-73
2023/12/02 06:58:55;;;;;;;19.53;14.10;;;;;;;-1.17;100.00;97023.81;4994546;28;20983;-73
2023/12/02 07:01:29;;;;;;;22.83;15.47;;;;;;;-1.26;100.00;97025.63;4994690;28;20447;-72
2023/12/02 07:03:57;;;;;;;21.70;14.73;;;;;;;-1.22;100.00;97034.75;4994669;28;20439;-73
2023/12/02 07:06:23;;;;;;;18.37;14.30;;;;;;;-1.26;100.00;97043.88;4994604;28;20527;-73
2023/12/02 07:08:51;;;;;;;22.93;16.33;;;;;;;-1.32;100.00;97051.56;4994262;28;20461;-73
2023/12/02 07:11:18;;;;;;;18.03;13.80;;;;;;;-1.44;100.00;97060.75;4994256;28;20920;-73
2023/12/02 07:13:45;;;;;;;21.37;14.93;;;;;;;-1.41;100.00;97060.41;4994577;28;20437;-73
2023/12/02 07:16:12;;;;;;;20.13;14.77;;;;;;;-1.23;100.00;97063.59;4994331;28;20437;-72
2023/12/02 07:18:39;;;;;;;20.60;14.73;;;;;;;-1.31;100.00;97064.44;4994430;28;20801;-73
2023/12/02 07:21:07;;;;;;;21.27;14.50;;;;;;;-1.24;100.00;97077.59;4993990;28;20473;-73
2023/12/02 07:23:33;;;;;;;18.17;13.70;;;;;;;-1.30;100.00;97083.50;4994089;28;20441;-73
2023/12/02 07:26:00;;;;;;;20.53;13.87;;;;;;;-1.23;100.00;97079.22;4993942;28;20452;-73
2023/12/02 07:28:27;;;;;;;17.87;13.63;;;;;;;-1.22;100.00;97081.69;4994238;28;20447;-73
2023/12/02 07:30:54;;;;;;;20.80;15.10;;;;;;;-1.21;100.00;97075.47;4994020;28;20453;-73
2023/12/02 07:33:20;;;;;;;17.73;13.43;;;;;;;-1.17;100.00;97084.59;4993876;28;20948;-73
2023/12/02 07:35:47;;;;;;;20.10;14.83;;;;;;;-1.23;100.00;97080.06;4994227;28;20799;-73
2023/12/02 07:38:13;;;;;;;21.37;15.30;;;;;;;-1.21;100.00;97083.28;4993801;28;20527;-73
2023/12/02 07:40:40;;;;;;;23.47;15.40;;;;;;;-1.18;100.00;97084.75;4993874;28;20484;-73
2023/12/02 07:43:06;;;;;;;20.30;14.93;;;;;;;-1.22;100.00;97086.88;4993449;28;21008;-73
2023/12/02 07:45:33;;;;;;;18.53;14.17;;;;;;;-1.28;100.00;97102.41;4993157;28;20441;-73
2023/12/02 07:47:59;;;;;;;20.40;13.90;;;;;;;-1.35;100.00;97107.47;4993864;28;20447;-73
2023/12/02 07:50:25;;;;;;;18.80;13.13;;;;;;;-1.36;100.00;97111.06;4993997;28;20453;-73
2023/12/02 07:52:52;;;;;;;20.43;12.97;;;;;;;-1.36;100.00;97123.25;4993626;28;20516;-73
2023/12/02 07:55:18;;;;;;;18.67;13.27;;;;;;;-1.44;100.00;97126.72;4993830;28;20528;-73
2023/12/02 07:57:45;;;;;;;18.57;13.40;;;;;;;-1.39;100.00;97132.22;4994912;28;20436;-73
2023/12/02 08:00:12;;;;;;;17.70;13.10;;;;;;;-1.37;100.00;97145.09;4993854;28;20484;-73
2023/12/02 08:02:39;;;;;;;16.30;11.47;;;;;;;-1.35;100.00;97138.75;4993724;28;20467;-73
2023/12/02 08:05:06;;;;;;;17.57;13.10;;;;;;;-1.38;100.00;97135.66;4993860;28;20532;-73
2023/12/02 08:07:32;;;;;;;21.73;13.67;;;;;;;-1.41;100.00;97138.59;4993700;28;20432;-73
2023/12/02 08:09:58;;;;;;;20.07;13.77;;;;;;;-1.32;100.00;97142.81;4993691;28;20453;-73
2023/12/02 08:12:25;;;;;;;18.70;13.70;;;;;;;-1.25;100.00;97147.22;4993753;28;20441;-73
2023/12/02 08:14:51;;;;;;;18.87;13.30;;;;;;;-1.27;100.00;97156.97;4993834;28;20447;-73
2023/12/02 08:17:17;;;;;;;22.10;15.10;;;;;;;-1.20;100.00;97152.72;4993447;28;20437;-73
2023/12/02 08:19:44;;;;;;;20.00;13.87;;;;;;;-1.25;100.00;97162.84;4993676;28;20932;-73
2023/12/02 08:22:10;;;;;;;25.30;15.67;;;;;;;-1.19;100.00;97167.38;4993246;28;20925;-73
2023/12/02 08:24:42;;;;;;;20.40;14.60;;;;;;;-1.10;100.00;97169.00;4993868;28;20535;-73
2023/12/02 08:27:09;;;;;;;20.07;15.53;;;;;;;-1.25;100.00;97169.84;4993235;28;20901;-73
2023/12/02 08:29:36;;;;;;;21.57;16.20;;;;;;;-1.10;100.00;97174.22;4993600;28;20810;-73
2023/12/02 08:32:03;;;;;;;23.37;15.00;;;;;;;-1.15;100.00;97176.50;4993553;28;20440;-73
2023/12/02 08:34:30;;;;;;;21.87;16.43;;;;;;;-1.11;100.00;97180.41;4993415;28;20445;-73
2023/12/02 08:36:57;;;;;;;23.90;16.00;;;;;;;-1.09;100.00;97183.66;4993184;28;20455;-73
2023/12/02 08:39:23;;;;;;;20.37;15.23;;;;;;;-1.21;100.00;97192.81;4993338;28;20459;-73
2023/12/02 08:41:49;;;;;;;22.00;14.97;;;;;;;-1.18;100.00;97202.09;4993569;28;20452;-73
2023/12/02 08:44:16;;;;;;;23.73;15.77;;;;;;;-1.14;100.00;97209.41;4993321;28;20439;-73
2023/12/02 08:46:42;;;;;;;22.40;15.97;;;;;;;-1.18;100.00;97208.13;4993433;28;20441;-73
2023/12/02 08:49:08;;;;;;;22.07;16.30;;;;;;;-1.21;100.00;97212.88;4993240;28;20468;-74
2023/12/02 08:51:35;;;;;;;23.00;16.57;;;;;;;-1.30;100.00;97214.66;4992995;28;20447;-73
2023/12/02 08:54:03;;;;;;;20.00;15.53;;;;;;;-1.22;100.00;97217.25;4992995;28;20946;-73
2023/12/02 08:56:29;;;;;;;22.10;16.00;;;;;;;-1.13;100.00;97213.66;4994290;28;20523;-73
2023/12/02 08:58:56;;;;;;;21.03;15.07;;;;;;;-1.34;100.00;97226.41;4996674;28;20487;-73
2023/12/02 09:01:23;;;;;;;22.90;16.97;;;;;;;-1.27;100.00;97226.53;4996709;28;20472;-73
2023/12/02 09:03:50;;;;;;;19.83;14.57;;;;;;;-1.18;100.00;97228.97;4996601;28;20440;-73
2023/12/02 09:06:16;;;;;;;22.37;16.53;;;;;;;-1.23;100.00;97244.31;4995289;28;20451;-73
2023/12/02 09:08:43;;;;;;;24.33;17.40;;;;;;;-1.17;100.00;97237.63;4996609;28;20432;-73
2023/12/02 09:11:09;;;;;;;22.53;16.87;;;;;;;-1.11;100.00;97243.00;4996392;28;20443;-73
2023/12/02 09:13:46;;;;;;;19.67;14.67;;;;;;;-1.20;100.00;97241.38;4996504;28;20433;-73
2023/12/02 09:16:18;;;;;;;21.67;16.37;;;;;;;-1.24;100.00;97247.09;4996760;28;20428;-73
2023/12/02 09:18:45;;;;;;;21.83;15.53;;;;;;;-1.22;100.00;97256.38;4996444;28;20417;-73
2023/12/02 09:21:41;;;;;;;22.23;16.37;;;;;;;-1.06;100.00;97256.34;4996242;28;20481;-73
2023/12/02 09:24:30;;;;;;;20.80;15.77;;;;;;;-1.19;100.00;97263.88;4996107;28;20927;-73
2023/12/02 09:26:56;;;;;;;19.00;14.57;;;;;;;-1.23;100.00;97267.78;4996342;28;20421;-73
2023/12/02 09:29:28;;;;;;;18.07;14.23;;;;;;;-1.05;100.00;97273.63;4996182;28;20476;-73
2023/12/02 09:31:54;;;;;;;19.33;14.87;;;;;;;-0.96;100.00;97279.63;4996059;28;20191;-73
2023/12/02 09:34:42;;;;;;;20.50;14.70;;;;;;;-0.87;100.00;97284.66;4995867;28;20440;-73
2023/12/02 09:37:54;;;;;;;17.67;13.93;;;;;;;-0.92;100.00;97288.75;4996052;28;20440;-73
2023/12/02 09:40:20;;;;;;;18.13;13.33;;;;;;;-1.15;100.00;97295.63;4995981;28;20481;-73
2023/12/02 09:42:52;;;;;;;19.07;14.03;;;;;;;-1.06;100.00;97300.69;4996006;28;20804;-73
2023/12/02 09:45:22;;;;;;;19.33;14.50;;;;;;;-1.03;100.00;97299.53;4994697;28;20425;-73
2023/12/02 09:48:23;;;;;;;18.23;14.30;;;;;;;-0.97;100.00;97298.88;4996012;28;20447;-73
2023/12/02 09:51:29;;;;;;;20.20;14.40;;;;;;;-0.96;100.00;97296.09;4995945;28;20808;-73
2023/12/02 09:54:26;;;;;;;17.53;13.47;;;;;;;-1.05;100.00;97291.88;4995537;28;20445;-73
2023/12/02 09:56:57;;;;;;;17.30;13.50;;;;;;;-1.00;100.00;97292.19;4995853;28;20420;-73
2023/12/02 09:59:48;;;;;;;17.90;13.20;;;;;;;-1.06;100.00;97287.66;4995379;28;20460;-73
2023/12/02 10:02:21;;;;;;;18.87;14.37;;;;;;;-1.03;100.00;97292.50;4995677;28;20424;-73
2023/12/02 10:05:01;;;;;;;17.90;14.20;;;;;;;-1.17;100.00;97287.97;4995499;28;20445;-73
2023/12/02 10:07:38;;;;;;;18.10;13.47;;;;;;;-1.01;100.00;97293.19;4995202;28;20892;-73
2023/12/02 10:10:10;;;;;;;16.57;12.67;;;;;;;-0.81;100.00;97298.84;4994966;28;20543;-73
2023/12/02 10:12:42;;;;;;;17.07;14.17;;;;;;;-0.99;100.00;97296.41;4995450;28;20421;-73
2023/12/02 10:15:12;;;;;;;19.60;13.93;;;;;;;-0.96;100.00;97296.09;4995415;28;20437;-73
2023/12/02 10:17:50;;;;;;;19.03;14.27;;;;;;;-0.98;100.00;97298.03;4995535;28;20437;-74
2023/12/02 10:20:16;;;;;;;16.50;12.83;;;;;;;-0.86;100.00;97306.38;4995067;28;20489;-73
2023/12/02 10:22:49;;;;;;;18.40;13.33;;;;;;;-0.99;100.00;97313.88;4994959;28;20429;-73
2023/12/02 10:25:40;;;;;;;16.30;12.77;;;;;;;-0.87;100.00;97315.97;4995292;28;20449;-72
2023/12/02 10:28:13;;;;;;;15.27;12.13;;;;;;;-0.96;100.00;97311.75;4994998;28;20421;-73
2023/12/02 10:30:50;;;;;;;16.17;13.50;;;;;;;-0.87;100.00;97318.59;4995853;28;20497;-73
2023/12/02 10:33:33;;;;;;;20.80;17.90;;;;;;;-0.84;100.00;97318.25;4993712;28;20444;-73
2023/12/02 10:36:09;;;;;;;16.83;14.23;;;;;;;-0.78;100.00;97314.16;4994914;28;20217;-73
2023/12/02 10:39:07;;;;;;;15.10;12.30;;;;;;;-0.68;100.00;97322.59;4995082;28;20420;-73
2023/12/02 10:41:44;;;;;;;14.60;11.07;;;;;;;-0.82;100.00;97329.34;4995038;28;20464;-73
2023/12/02 10:44:11;;;;;;;13.40;10.40;;;;;;;-1.10;100.00;97329.84;4994790;28;20421;-73
2023/12/02 10:46:40;;;;;;;12.47;10.27;;;;;;;-1.07;100.00;97329.53;4994580;28;20436;-73
2023/12/02 10:49:06;;;;;;;14.37;11.23;;;;;;;-0.94;100.00;97333.25;4994840;28;20468;-73
2023/12/02 10:51:40;;;;;;;17.30;12.60;;;;;;;-1.12;100.00;97339.66;4994396;28;20948;-73
2023/12/02 10:54:08;;;;;;;16.77;11.57;;;;;;;-1.02;100.00;97332.47;4994761;28;20780;-73
2023/12/02 10:56:39;;;;;;;14.27;11.77;;;;;;;-1.00;100.00;97330.50;4994773;28;20452;-72
2023/12/02 10:59:07;;;;;;;15.83;11.27;;;;;;;-0.98;100.00;97339.78;4994474;28;20556;-72
2023/12/02 11:01:51;;;;;;;13.20;10.10;;;;;;;-0.98;100.00;97337.19;4994595;28;20873;-72
2023/12/02 11:04:25;;;;;;;14.23;11.00;;;;;;;-1.03;100.00;97338.66;4994583;28;20435;-72
2023/12/02 11:06:55;;;;;;;13.60;10.70;;;;;;;-1.07;100.00;97353.81;4994438;28;20437;-72
2023/12/02 11:09:36;;;;;;;14.37;10.57;;;;;;;-1.17;100.00;97355.78;4994254;28;20548;-72
2023/12/02 11:12:10;;;;;;;11.70;9.37;;;;;;;-1.20;100.00;97355.28;4993862;28;21019;-74
2023/12/02 11:14:41;;;;;;;11.83;9.13;;;;;;;-1.19;100.00;97354.31;4994383;28;20425;-73